Terminal Aerodrome Forecast
Issued by NWS Charleston, WV

Current Version | Previous Version | Graphics & Text | Print | Product List | Glossary On
Versions: 1 2 3 4 5 6 7 8 9 10 11 12 13 14 15 16 17 18 19 20 21 22 23 24 25 26
000
FTUS41 KRLX 200200 AAA
TAFCRW
TAF AMD
KCRW 200220Z 2002/2024 12008G14KT P6SM SCT050
     FM200700 14006KT 6SM BR SCT080
     FM200900 15006KT 4SM BR FEW001 SCT070
     FM201300 17005KT 5SM HZ SCT002 SCT080
     FM201500 18008KT P6SM SCT040
     FM202300 17004KT P6SM SCT080=

USA.gov is the U.S. government's official web portal to all federal, state and local government web resources and services.